Sardinia Regina — IBMS — position and weather

sailwx.info

Track history (hours):
 
Tides and Currents Weather Stations Pressure Air Temp Water Temp Dewpoint Dewpoint Depression Visibility Wind Speed Wind Dir Waves Ship Positions

Sardinia Regina

Last reported at 2016-Aug-27 04:33 UTC. Time now 2016-Aug-27 06:25 UTC.
Position N 43°33' E 010°18'.

Length 146 m; draft 5 m.

Type: Passenger vessel. MMSI: 247079000.

Date/timePositionNaut miles runAvg speedWind from/ knotsBaromVisibWave heightAir tempDewpointWater temp
2016-Aug-27 04:33N 43°33' E 010°18'5 5.3
2016-Aug-27 03:34N 43°29' E 010°14'1716.6
2016-Aug-27 02:34N 43°13' E 010°08'1716.7
2016-Aug-27 01:34N 42°57' E 010°03'1716.4
2016-Aug-27 00:33N 42°40' E 009°58'1817.7
2016-Aug-26 23:33N 42°23' E 009°55'1817.6
2016-Aug-26 22:34N 42°05' E 009°52'59 2.9
2016-Aug-26 02:06N 43°02' E 009°28'1017.0
2016-Aug-26 01:33N 43°06' E 009°16'1716.9
2016-Aug-26 00:33N 43°12' E 008°55'1716.9
2016-Aug-25 23:33N 43°18' E 008°33'1717.3
2016-Aug-25 22:33N 43°24' E 008°11'1817.2
2016-Aug-25 21:32N 43°30' E 007°48'1717.4
2016-Aug-25 20:33N 43°37' E 007°27'8 3.9
2016-Aug-25 18:26N 43°42' E 007°17'1213.0
2016-Aug-25 17:33N 43°35' E 007°30'1716.8
2016-Aug-25 16:33N 43°24' E 007°48'1717.4
2016-Aug-25 15:33N 43°13' E 008°06'1717.4
2016-Aug-25 14:33N 43°01' E 008°24'1817.6
2016-Aug-25 13:33N 42°50' E 008°42'1515.6
2016-Aug-25 12:33N 42°38' E 008°56'14 6.1
2016-Aug-25 10:16N 42°48' E 008°43'4617.1
2016-Aug-25 07:33N 43°16' E 007°53'2117.2
2016-Aug-25 06:21N 43°31' E 007°32'12 4.2
2016-Aug-25 03:33N 43°39' E 007°21'2114.9
2016-Aug-25 02:10N 43°31' E 007°47'1016.0
2016-Aug-25 01:33N 43°28' E 007°60'1716.5
2016-Aug-25 00:33N 43°23' E 008°21'1616.2
2016-Aug-24 23:33N 43°18' E 008°42'1616.3
2016-Aug-24 22:33N 43°10' E 009°02'1716.9
2016-Aug-24 21:33N 43°04' E 009°24'5 0.2
2016-Aug-24 02:16N 43°01' E 009°29'1216.7
2016-Aug-24 01:33N 43°07' E 009°15'1717.3
2016-Aug-24 00:33N 43°13' E 008°52'1717.4
2016-Aug-23 23:33N 43°19' E 008°30'1717.5
2016-Aug-23 22:33N 43°25' E 008°08'2017.3
2016-Aug-23 21:25N 43°32' E 007°42'1517.3
2016-Aug-23 20:32N 43°38' E 007°23'5 5.3
2016-Aug-23 19:33N 43°42' E 007°17'0 0.0
2016-Aug-23 18:33N 43°42' E 007°17'1211.7
2016-Aug-23 17:34N 43°33' E 007°28'1817.8
2016-Aug-23 16:33N 43°22' E 007°47'1817.6
2016-Aug-23 15:34N 43°11' E 008°07'1917.0
2016-Aug-23 14:28N 42°59' E 008°26'2317.2
2016-Aug-23 13:09N 42°44' E 008°50'7310.4
2016-Aug-23 06:09N 43°31' E 007°33'1016.9
2016-Aug-23 05:33N 43°38' E 007°22'5 5.5
2016-Aug-23 04:33N 43°42' E 007°17'1 0.6
2016-Aug-23 03:33N 43°41' E 007°17'3316.4
2016-Aug-23 01:33N 43°30' E 007°60'1817.8
2016-Aug-23 00:33N 43°27' E 008°24'1717.4
2016-Aug-22 23:34N 43°23' E 008°47'1716.5
2016-Aug-22 22:32N 43°10' E 009°03'1917.7
2016-Aug-22 21:27N 43°02' E 009°27'1 0.1
2016-Aug-22 01:33N 43°03' E 009°26'1717.0
2016-Aug-22 00:33N 43°10' E 009°04'1717.1
2016-Aug-21 23:33N 43°16' E 008°42'2017.3
2016-Aug-21 22:22N 43°23' E 008°16'1417.1
2016-Aug-21 21:33N 43°28' E 007°58'2317.0
2016-Aug-21 20:14N 43°37' E 007°29'1014.9
2016-Aug-21 19:34N 43°41' E 007°17'0 0.2
2016-Aug-21 18:33N 43°42' E 007°17'7 6.8
2016-Aug-21 17:31N 43°39' E 007°26'1717.8
2016-Aug-21 16:33N 43°29' E 007°46'1717.8
2016-Aug-21 15:33N 43°17' E 008°04'3617.2
2016-Aug-21 13:29N 42°53' E 008°40'71 8.9
2016-Aug-21 05:33N 43°37' E 007°24'7 6.9
2016-Aug-21 04:33N 43°42' E 007°17'0 0.2
2016-Aug-21 03:33N 43°41' E 007°17'3014.9
2016-Aug-21 01:33N 43°29' E 007°55'1717.4
2016-Aug-21 00:33N 43°23' E 008°17'1917.4
2016-Aug-20 23:28N 43°17' E 008°42'1617.6
2016-Aug-20 22:33N 43°11' E 009°02'1717.4
2016-Aug-20 21:34N 43°04' E 009°24'1816.8
2016-Aug-20 20:30N 42°47' E 009°33'1717.5
2016-Aug-20 19:33N 42°31' E 009°36'5911.3
2016-Aug-20 14:22N 41°33' E 009°25'3117.1
2016-Aug-20 12:33N 41°03' E 009°39'4 3.1
2016-Aug-20 11:12N 40°60' E 009°37'710.3
2016-Aug-20 10:33N 41°06' E 009°38'11514.3
2016-Aug-20 02:30N 43°01' E 009°30'1617.4
2016-Aug-20 01:33N 43°08' E 009°10'1817.6
2016-Aug-20 00:33N 43°14' E 008°47'1817.6
2016-Aug-19 23:33N 43°20' E 008°24'2017.8
2016-Aug-19 22:25N 43°27' E 007°59'1517.5
2016-Aug-19 21:33N 43°34' E 007°39'1817.2
2016-Aug-19 20:32N 43°41' E 007°17'1 0.8
2016-Aug-19 19:33N 43°42' E 007°17'1 0.4
2016-Aug-19 18:22N 43°41' E 007°18'1416.5
2016-Aug-19 17:32N 43°36' E 007°35'1717.5
2016-Aug-19 16:34N 43°26' E 007°54'1717.4
2016-Aug-19 15:34N 43°14' E 008°11'1616.5
2016-Aug-19 14:33N 43°02' E 008°27'1616.3
2016-Aug-19 13:33N 42°51' E 008°43'1610.7
2016-Aug-19 12:05N 42°38' E 008°56'0 0.0
2016-Aug-19 11:33N 42°38' E 008°56'3 2.7
2016-Aug-19 10:34N 42°41' E 008°55'1817.8
2016-Aug-19 09:34N 42°53' E 008°37'7117.7
2016-Aug-19 05:33N 43°38' E 007°22'5 4.9
2016-Aug-19 04:33N 43°42' E 007°17'1 0.8
2016-Aug-19 03:33N 43°41' E 007°18'5116.4
2016-Aug-19 00:26N 43°25' E 008°25'1516.9
2016-Aug-18 23:33N 43°21' E 008°44'1514.5
2016-Aug-18 22:32N 43°11' E 009°00'78 3.0
2016-Aug-17 20:33N 43°40' E 007°19'2 2.4
2016-Aug-17 19:33N 43°42' E 007°17'1 0.8
2016-Aug-17 18:33N 43°41' E 007°18'12 1.0
2016-Aug-17 06:11N 43°33' E 007°30'1117.4
2016-Aug-17 05:32N 43°40' E 007°18'  
Track history (hours):
 
Tides and Currents Weather Stations Pressure Air Temp Water Temp Dewpoint Dewpoint Depression Visibility Wind Speed Wind Dir Waves Ship Positions

Sardinia Regina

Last reported at 2016-Aug-27 04:33 UTC. Time now 2016-Aug-27 06:25 UTC.
Position N 43°33' E 010°18'.

Length 146 m; draft 5 m.

Type: Passenger vessel. MMSI: 247079000.

Date/timePositionNaut miles runAvg speedWind from/ knotsBaromVisibWave heightAir tempDewpointWater temp
2016-Aug-27 04:33N 43°33' E 010°18'5 5.3
2016-Aug-27 03:34N 43°29' E 010°14'1716.6
2016-Aug-27 02:34N 43°13' E 010°08'1716.7
2016-Aug-27 01:34N 42°57' E 010°03'1716.4
2016-Aug-27 00:33N 42°40' E 009°58'1817.7
2016-Aug-26 23:33N 42°23' E 009°55'1817.6
2016-Aug-26 22:34N 42°05' E 009°52'59 2.9
2016-Aug-26 02:06N 43°02' E 009°28'1017.0
2016-Aug-26 01:33N 43°06' E 009°16'1716.9
2016-Aug-26 00:33N 43°12' E 008°55'1716.9
2016-Aug-25 23:33N 43°18' E 008°33'1717.3
2016-Aug-25 22:33N 43°24' E 008°11'1817.2
2016-Aug-25 21:32N 43°30' E 007°48'1717.4
2016-Aug-25 20:33N 43°37' E 007°27'8 3.9
2016-Aug-25 18:26N 43°42' E 007°17'1213.0
2016-Aug-25 17:33N 43°35' E 007°30'1716.8
2016-Aug-25 16:33N 43°24' E 007°48'1717.4
2016-Aug-25 15:33N 43°13' E 008°06'1717.4
2016-Aug-25 14:33N 43°01' E 008°24'1817.6
2016-Aug-25 13:33N 42°50' E 008°42'1515.6
2016-Aug-25 12:33N 42°38' E 008°56'14 6.1
2016-Aug-25 10:16N 42°48' E 008°43'4617.1
2016-Aug-25 07:33N 43°16' E 007°53'2117.2
2016-Aug-25 06:21N 43°31' E 007°32'12 4.2
2016-Aug-25 03:33N 43°39' E 007°21'2114.9
2016-Aug-25 02:10N 43°31' E 007°47'1016.0
2016-Aug-25 01:33N 43°28' E 007°60'1716.5
2016-Aug-25 00:33N 43°23' E 008°21'1616.2
2016-Aug-24 23:33N 43°18' E 008°42'1616.3
2016-Aug-24 22:33N 43°10' E 009°02'1716.9
2016-Aug-24 21:33N 43°04' E 009°24'5 0.2
2016-Aug-24 02:16N 43°01' E 009°29'1216.7
2016-Aug-24 01:33N 43°07' E 009°15'1717.3
2016-Aug-24 00:33N 43°13' E 008°52'1717.4
2016-Aug-23 23:33N 43°19' E 008°30'1717.5
2016-Aug-23 22:33N 43°25' E 008°08'2017.3
2016-Aug-23 21:25N 43°32' E 007°42'1517.3
2016-Aug-23 20:32N 43°38' E 007°23'5 5.3
2016-Aug-23 19:33N 43°42' E 007°17'0 0.0
2016-Aug-23 18:33N 43°42' E 007°17'1211.7
2016-Aug-23 17:34N 43°33' E 007°28'1817.8
2016-Aug-23 16:33N 43°22' E 007°47'1817.6
2016-Aug-23 15:34N 43°11' E 008°07'1917.0
2016-Aug-23 14:28N 42°59' E 008°26'2317.2
2016-Aug-23 13:09N 42°44' E 008°50'7310.4
2016-Aug-23 06:09N 43°31' E 007°33'1016.9
2016-Aug-23 05:33N 43°38' E 007°22'5 5.5
2016-Aug-23 04:33N 43°42' E 007°17'1 0.6
2016-Aug-23 03:33N 43°41' E 007°17'3316.4
2016-Aug-23 01:33N 43°30' E 007°60'1817.8
2016-Aug-23 00:33N 43°27' E 008°24'1717.4
2016-Aug-22 23:34N 43°23' E 008°47'1716.5
2016-Aug-22 22:32N 43°10' E 009°03'1917.7
2016-Aug-22 21:27N 43°02' E 009°27'1 0.1
2016-Aug-22 01:33N 43°03' E 009°26'1717.0
2016-Aug-22 00:33N 43°10' E 009°04'1717.1
2016-Aug-21 23:33N 43°16' E 008°42'2017.3
2016-Aug-21 22:22N 43°23' E 008°16'1417.1
2016-Aug-21 21:33N 43°28' E 007°58'2317.0
2016-Aug-21 20:14N 43°37' E 007°29'1014.9
2016-Aug-21 19:34N 43°41' E 007°17'0 0.2
2016-Aug-21 18:33N 43°42' E 007°17'7 6.8
2016-Aug-21 17:31N 43°39' E 007°26'1717.8
2016-Aug-21 16:33N 43°29' E 007°46'1717.8
2016-Aug-21 15:33N 43°17' E 008°04'3617.2
2016-Aug-21 13:29N 42°53' E 008°40'71 8.9
2016-Aug-21 05:33N 43°37' E 007°24'7 6.9
2016-Aug-21 04:33N 43°42' E 007°17'0 0.2
2016-Aug-21 03:33N 43°41' E 007°17'3014.9
2016-Aug-21 01:33N 43°29' E 007°55'1717.4
2016-Aug-21 00:33N 43°23' E 008°17'1917.4
2016-Aug-20 23:28N 43°17' E 008°42'1617.6
2016-Aug-20 22:33N 43°11' E 009°02'1717.4
2016-Aug-20 21:34N 43°04' E 009°24'1816.8
2016-Aug-20 20:30N 42°47' E 009°33'1717.5
2016-Aug-20 19:33N 42°31' E 009°36'5911.3
2016-Aug-20 14:22N 41°33' E 009°25'3117.1
2016-Aug-20 12:33N 41°03' E 009°39'4 3.1
2016-Aug-20 11:12N 40°60' E 009°37'710.3
2016-Aug-20 10:33N 41°06' E 009°38'11514.3
2016-Aug-20 02:30N 43°01' E 009°30'1617.4
2016-Aug-20 01:33N 43°08' E 009°10'1817.6
2016-Aug-20 00:33N 43°14' E 008°47'1817.6
2016-Aug-19 23:33N 43°20' E 008°24'2017.8
2016-Aug-19 22:25N 43°27' E 007°59'1517.5
2016-Aug-19 21:33N 43°34' E 007°39'1817.2
2016-Aug-19 20:32N 43°41' E 007°17'1 0.8
2016-Aug-19 19:33N 43°42' E 007°17'1 0.4
2016-Aug-19 18:22N 43°41' E 007°18'1416.5
2016-Aug-19 17:32N 43°36' E 007°35'1717.5
2016-Aug-19 16:34N 43°26' E 007°54'1717.4
2016-Aug-19 15:34N 43°14' E 008°11'1616.5
2016-Aug-19 14:33N 43°02' E 008°27'1616.3
2016-Aug-19 13:33N 42°51' E 008°43'1610.7
2016-Aug-19 12:05N 42°38' E 008°56'0 0.0
2016-Aug-19 11:33N 42°38' E 008°56'3 2.7
2016-Aug-19 10:34N 42°41' E 008°55'1817.8
2016-Aug-19 09:34N 42°53' E 008°37'7117.7
2016-Aug-19 05:33N 43°38' E 007°22'5 4.9
2016-Aug-19 04:33N 43°42' E 007°17'1 0.8
2016-Aug-19 03:33N 43°41' E 007°18'5116.4
2016-Aug-19 00:26N 43°25' E 008°25'1516.9
2016-Aug-18 23:33N 43°21' E 008°44'1514.5
2016-Aug-18 22:32N 43°11' E 009°00'78 3.0
2016-Aug-17 20:33N 43°40' E 007°19'2 2.4
2016-Aug-17 19:33N 43°42' E 007°17'1 0.8
2016-Aug-17 18:33N 43°41' E 007°18'12 1.0
2016-Aug-17 06:11N 43°33' E 007°30'1117.4
2016-Aug-17 05:32N 43°40' E 007°18'  

Dump ship's entire track history